Aérodrome :
LOGIN :

S'inscrire | Disclaimer

   EN    FR    IT 

 










Légende :    VFR   VFR Marginal   IFR   IFR Intensif   IFR Très Intensif
Visi : 
Plafond : 
>= 8 km
>= 3000ft
5 à 8 km
1000 à 3000 ft
1500m à 5 km
500 à 1000 ft
800 à 1500m
200 à 500 ft
< 800m
< 200 ft
Symboles :   Orages  Brouillard  Fortes neiges  Fortes précipitations  Vent > 20 kt
SIGMETs :   Divers  Orages  Givrage  Turbulence  Onde Orograph.  Cendres Volcan.






- Altitude de l'aérodrome : 1090 ft
- Code IATA : CFE


LFLC - Clermont-Ferrand Auvergne

DERNIER METAR :
  • 141630Z AUTO 20004KT 9999 -DZ BKN023 BKN035 BKN045 05/03 Q0997 TEMPO 3000 -RADZ BKN012

METARs EXPIRÉS :
  • 141600Z AUTO 20004KT 9999 -DZ FEW023 SCT035 BKN046 05/04 Q0997 TEMPO 3000 -RADZ BKN012
  • 141430Z AUTO 18004KT 9999 -DZ BKN023 BKN031 BKN040 05/03 Q0997 TEMPO 4000 -SHRA FEW020 SCT040TCU
  • 141400Z AUTO 20004KT 9999 BKN024 BKN029 BKN035 05/04 Q0997 TEMPO 4000 -SHRA FEW020 SCT040TCU

TAF TAF LFLC
Valide du 14 à 15h jusqu'au 15 à 15h UTC


141400Z 1415/1515 VRB02KT 9999 BKN030 BKN050
PROB40
TEMPO 1415/1503 3000 -RADZ BKN012
TEMPO 1508/1513 16010KT
ATIS : +33 4 73 62 74 38



MET'MAP, la Météo Aéronautique d'un coup d'oeil ! - Copyright ORBIFLY Décembre 2007 - Disclaimer

ORBIFLY MET'MAP TEAM :

Programmation & Développement : Alexandra Zaïnal
Conception & Développement : Baudouin d'Aumeries
Co-Programmation & Développement : Marc-Olivier Méhu
Soutien technique & logistique : Manuel Goepfert

Contact : metmap@orbifly.com




SOURCES & CREDITS :

   NOAA